Stoneville, South Dakota
Current Conditions -  °F | °C
As of 5:58 AM on Saturday 20 Dec 2014 (Local Time) from KRCA Reporting Station
Overcast Overcast  
Wind Chill: 26°   Ceiling: 9000
Heat Index: 32°   Visibility: 10mi
Dew Point: 24°   Wind: 6mph
Humidity: 74%   Direction: 310°NW
Pressure: 29.89"   Gusts: NA
Location:  44.653°N, 102.847°W
Report Text: KRCA 201258Z AUTO 31005KT 10SM OVC090 00/M04 A2989 RMK AO2 SLP151 T10011043 $
Loading
Personal Weather Stations






























Interactive Weather Map New forecast layout! Learn more

10-Day Weather Forecast

Advertisements
Track Severe Weather on mobile